createdAt,value
2024-02-14T00:00:39.133Z,1.28
2024-02-14T00:05:43.112Z,0.08
2024-02-14T00:10:46.817Z,1.30
2024-02-14T00:15:50.293Z,1.96
2024-02-14T00:20:53.812Z,1.61
2024-02-14T00:25:57.220Z,0.13
2024-02-14T00:31:00.742Z,1.96
2024-02-14T00:36:04.618Z,1.55
2024-02-14T00:41:07.897Z,1.94
2024-02-14T00:46:11.532Z,0.14
2024-02-14T00:51:14.932Z,2.00
2024-02-14T00:56:19.301Z,1.40
2024-02-14T01:01:23.352Z,2.06
2024-02-14T01:06:27.033Z,1.72
2024-02-14T01:11:30.515Z,1.38
2024-02-14T01:16:34.341Z,1.41
2024-02-14T01:21:37.719Z,1.07
2024-02-14T01:26:41.145Z,1.37
2024-02-14T01:31:45.079Z,-0.67
2024-02-14T01:36:49.943Z,0.69
2024-02-14T01:41:53.265Z,1.38
2024-02-14T01:46:56.936Z,0.94
2024-02-14T01:52:04.678Z,0.17
2024-02-14T01:57:10.120Z,1.37
2024-02-14T02:02:13.804Z,0.96
2024-02-14T02:07:17.288Z,0.48
2024-02-14T02:12:29.349Z,1.33
2024-02-14T02:17:32.699Z,1.17
2024-02-14T02:22:40.045Z,1.29
2024-02-14T02:27:43.918Z,-0.05
2024-02-14T02:32:47.447Z,1.11
2024-02-14T02:37:52.437Z,1.51
2024-02-14T02:42:56.665Z,0.87
2024-02-14T02:48:00.052Z,1.63
2024-02-14T02:53:03.799Z,1.37
2024-02-14T02:58:08.778Z,0.24
2024-02-14T03:03:12.841Z,1.74
2024-02-14T03:08:17.635Z,1.63
2024-02-14T03:13:21.934Z,1.81
2024-02-14T03:18:25.433Z,2.04
2024-02-14T03:23:29.912Z,1.79
2024-02-14T03:28:33.419Z,-0.70
2024-02-14T03:33:36.921Z,0.72
2024-02-14T03:38:42.704Z,0.85
2024-02-14T03:43:46.232Z,-0.20
2024-02-14T03:48:50.042Z,0.63
2024-02-14T03:53:54.148Z,-0.20
2024-02-14T03:58:57.844Z,0.75
2024-02-14T04:04:01.639Z,0.42
2024-02-14T04:09:05.109Z,0.09
2024-02-14T04:14:09.413Z,0.85
2024-02-14T04:19:15.054Z,-0.05
2024-02-14T04:24:18.583Z,-0.77
2024-02-14T04:29:21.989Z,0.33
2024-02-14T04:34:25.774Z,-0.86
2024-02-14T04:39:29.613Z,0.37
2024-02-14T04:44:34.170Z,-0.15
2024-02-14T04:49:38.679Z,0.25
2024-02-14T04:54:42.193Z,-0.78
2024-02-14T04:59:45.658Z,0.15
2024-02-14T05:04:49.484Z,0.13
2024-02-14T05:09:54.252Z,-0.29
2024-02-14T05:14:57.804Z,0.27
2024-02-14T05:20:01.793Z,-1.57
2024-02-14T05:25:06.353Z,-1.80
2024-02-14T05:30:12.782Z,-0.15
2024-02-14T05:35:16.101Z,-0.17
2024-02-14T05:40:19.977Z,0.20
2024-02-14T05:45:23.516Z,-0.24
2024-02-14T05:50:26.994Z,0.17
2024-02-14T05:55:30.362Z,-0.49
2024-02-14T06:00:33.973Z,-0.54
2024-02-14T06:05:37.654Z,0.31
2024-02-14T06:10:41.580Z,-1.32
2024-02-14T06:15:44.967Z,-0.92
2024-02-14T06:20:48.974Z,-0.48
2024-02-14T06:25:52.489Z,-0.57
2024-02-14T06:31:02.856Z,-0.40
2024-02-14T06:36:06.655Z,-0.35
2024-02-14T06:41:10.215Z,-0.49
2024-02-14T06:46:13.723Z,-0.62
2024-02-14T06:51:17.257Z,0.09
2024-02-14T06:56:20.777Z,-0.32
2024-02-14T07:01:32.401Z,0.16
2024-02-14T07:06:39.740Z,0.14
2024-02-14T07:11:43.450Z,0.48
2024-02-14T07:16:48.704Z,0.58
2024-02-14T07:21:52.488Z,-0.35
2024-02-14T07:26:55.954Z,1.20
2024-02-14T07:32:01.024Z,1.15
2024-02-14T07:37:04.467Z,2.06
2024-02-14T07:42:08.048Z,2.36
2024-02-14T07:47:11.444Z,2.80
2024-02-14T07:52:14.898Z,2.87
2024-02-14T07:57:18.331Z,3.43
2024-02-14T08:02:22.322Z,3.85
2024-02-14T08:07:25.924Z,3.72
2024-02-14T08:12:29.283Z,4.36
2024-02-14T08:17:33.449Z,4.72
2024-02-14T08:22:37.046Z,5.49
2024-02-14T08:27:40.578Z,5.72
2024-02-14T08:32:45.114Z,6.19
2024-02-14T08:37:48.525Z,6.45
2024-02-14T08:42:51.866Z,6.47
2024-02-14T08:47:55.552Z,6.87
2024-02-14T08:52:58.975Z,6.21
2024-02-14T08:58:02.408Z,7.62
2024-02-14T09:03:06.512Z,7.97
2024-02-14T09:08:09.872Z,7.98
2024-02-14T09:13:13.187Z,7.79
2024-02-14T09:18:18.388Z,7.63
2024-02-14T09:23:24.287Z,7.71
2024-02-14T09:28:27.721Z,7.91
2024-02-14T09:33:32.073Z,7.94
2024-02-14T09:38:36.347Z,8.73
2024-02-14T09:43:46.213Z,9.55
2024-02-14T09:48:50.718Z,9.48
2024-02-14T09:53:56.698Z,10.75
2024-02-14T09:59:02.319Z,10.81
2024-02-14T10:04:06.300Z,9.83
2024-02-14T10:09:12.191Z,10.90
2024-02-14T10:14:15.762Z,10.89
2024-02-14T10:19:20.840Z,11.24
2024-02-14T10:24:29.669Z,11.71
2024-02-14T10:29:33.230Z,11.65
2024-02-14T10:34:39.705Z,11.03
2024-02-14T10:39:44.147Z,11.08
2024-02-14T10:44:51.278Z,12.17
2024-02-14T10:49:56.678Z,11.66
2024-02-14T10:55:03.275Z,12.06
2024-02-14T11:00:11.349Z,11.31
2024-02-14T11:05:18.667Z,12.36
2024-02-14T11:10:23.901Z,12.54
2024-02-14T11:15:27.612Z,12.16
2024-02-14T11:20:36.673Z,12.35
2024-02-14T11:25:40.386Z,12.93
2024-02-14T11:30:44.765Z,12.12
2024-02-14T11:35:55.146Z,11.85
2024-02-14T11:40:59.568Z,11.69
2024-02-14T11:46:03.157Z,10.81
2024-02-14T11:51:10.024Z,11.91
2024-02-14T11:56:14.333Z,12.66
2024-02-14T12:01:20.201Z,11.90
2024-02-14T12:06:25.828Z,12.70
2024-02-14T12:11:31.195Z,12.50
2024-02-14T12:16:37.995Z,13.16
2024-02-14T12:21:41.736Z,13.42
2024-02-14T12:26:45.608Z,13.10
2024-02-14T12:31:49.273Z,12.15
2024-02-14T12:36:52.595Z,13.25
2024-02-14T12:41:56.845Z,13.08
2024-02-14T12:47:00.396Z,12.77
2024-02-14T12:52:04.137Z,12.71
2024-02-14T12:57:08.749Z,12.38
2024-02-14T13:02:12.883Z,12.47
2024-02-14T13:07:16.282Z,12.69
2024-02-14T13:12:20.320Z,12.84
2024-02-14T13:17:25.257Z,13.12
2024-02-14T13:22:29.564Z,13.19
2024-02-14T13:27:32.933Z,13.16
2024-02-14T13:32:36.530Z,12.82
2024-02-14T13:37:40.204Z,12.90
2024-02-14T13:42:43.485Z,12.75
2024-02-14T13:47:48.369Z,13.17
2024-02-14T13:52:51.983Z,12.21
2024-02-14T13:57:55.495Z,12.90
2024-02-14T14:02:58.882Z,13.03
2024-02-14T14:08:02.730Z,12.34
2024-02-14T14:13:06.767Z,12.96
2024-02-14T14:18:10.623Z,12.34
2024-02-14T14:23:14.835Z,12.00
2024-02-14T14:28:19.460Z,12.27
2024-02-14T14:33:24.082Z,11.87
2024-02-14T14:38:28.558Z,12.48
2024-02-14T14:43:31.963Z,11.64
2024-02-14T14:48:35.467Z,11.54
2024-02-14T14:53:38.977Z,11.79
2024-02-14T14:58:44.517Z,10.20
2024-02-14T15:03:48.462Z,11.64
2024-02-14T15:08:52.831Z,11.89
2024-02-14T15:13:58.232Z,11.99
2024-02-14T15:19:02.276Z,11.82
2024-02-14T15:24:06.397Z,11.32
2024-02-14T15:29:33.626Z,10.61
2024-02-14T15:34:38.126Z,11.66
2024-02-14T15:39:41.929Z,11.41
2024-02-14T15:44:45.772Z,11.31
2024-02-14T15:49:49.779Z,11.48
2024-02-14T15:54:54.990Z,10.76
2024-02-14T16:00:00.108Z,9.95
2024-02-14T16:05:05.057Z,11.04
2024-02-14T16:10:09.217Z,11.27
2024-02-14T16:15:13.821Z,11.07
2024-02-14T16:20:20.091Z,10.28
2024-02-14T16:25:25.143Z,9.64
2024-02-14T16:30:28.729Z,9.48
2024-02-14T16:35:32.574Z,7.44
2024-02-14T16:40:36.968Z,8.56
2024-02-14T16:45:40.918Z,7.93
2024-02-14T16:50:45.977Z,6.53
2024-02-14T16:55:49.475Z,6.84
2024-02-14T17:00:53.128Z,6.35
2024-02-14T17:05:56.910Z,6.63
2024-02-14T17:11:03.373Z,6.44
2024-02-14T17:16:09.903Z,5.28
2024-02-14T17:21:13.325Z,5.73
2024-02-14T17:26:16.878Z,5.49
2024-02-14T17:31:21.862Z,5.33
2024-02-14T17:36:25.880Z,5.24
2024-02-14T17:41:29.609Z,5.13
2024-02-14T17:46:33.573Z,5.33
2024-02-14T17:51:37.256Z,4.77
2024-02-14T17:56:40.590Z,3.34
2024-02-14T18:01:44.106Z,4.59
2024-02-14T18:06:47.621Z,2.84
2024-02-14T18:11:51.128Z,4.15
2024-02-14T18:16:54.705Z,4.71
2024-02-14T18:21:58.308Z,4.46
2024-02-14T18:27:02.445Z,4.38
2024-02-14T18:32:09.074Z,2.87
2024-02-14T18:37:13.197Z,2.18
2024-02-14T18:42:16.496Z,3.86
2024-02-14T18:47:20.173Z,3.86
2024-02-14T18:52:23.690Z,3.07
2024-02-14T18:57:31.384Z,3.98
2024-02-14T19:02:37.721Z,4.16
2024-02-14T19:07:41.273Z,3.30
2024-02-14T19:12:44.668Z,3.20
2024-02-14T19:17:48.078Z,2.30
2024-02-14T19:22:51.694Z,3.19
2024-02-14T19:27:55.174Z,1.63
2024-02-14T19:32:58.929Z,2.45
2024-02-14T19:38:02.538Z,2.63
2024-02-14T19:43:06.065Z,2.44
2024-02-14T19:48:11.565Z,2.70
2024-02-14T19:53:17.219Z,2.56
2024-02-14T19:58:21.866Z,1.34
2024-02-14T20:03:25.214Z,1.67
2024-02-14T20:08:30.595Z,1.66
2024-02-14T20:13:34.483Z,1.42
2024-02-14T20:18:37.995Z,2.39
2024-02-14T20:23:41.822Z,1.15
2024-02-14T20:28:46.192Z,2.81
2024-02-14T20:33:52.795Z,1.46
2024-02-14T20:38:58.207Z,1.71
2024-02-14T20:44:01.888Z,1.36
2024-02-14T20:49:06.782Z,2.08
2024-02-14T20:54:10.338Z,2.81
2024-02-14T20:59:16.776Z,2.28
2024-02-14T21:04:20.929Z,2.91
2024-02-14T21:09:24.937Z,2.33
2024-02-14T21:14:28.472Z,1.45
2024-02-14T21:19:32.349Z,2.60
2024-02-14T21:24:36.532Z,2.25
2024-02-14T21:29:40.885Z,2.04
2024-02-14T21:34:44.584Z,2.60
2024-02-14T21:39:48.224Z,2.03
2024-02-14T21:44:51.657Z,1.49
2024-02-14T21:49:55.169Z,1.50
2024-02-14T21:54:58.937Z,1.22
2024-02-14T22:00:03.121Z,2.54
2024-02-14T22:05:06.701Z,1.64
2024-02-14T22:10:11.234Z,1.10
2024-02-14T22:15:14.986Z,0.15
2024-02-14T22:20:20.192Z,2.05
2024-02-14T22:25:23.517Z,1.36
2024-02-14T22:30:26.940Z,1.82
2024-02-14T22:35:32.168Z,1.46
2024-02-14T22:40:36.515Z,0.81
2024-02-14T22:45:40.364Z,1.16
2024-02-14T22:50:44.091Z,1.74
2024-02-14T22:55:47.470Z,-0.20
2024-02-14T23:00:51.502Z,1.53
2024-02-14T23:05:55.063Z,1.43
2024-02-14T23:10:58.425Z,1.27
2024-02-14T23:16:02.232Z,-0.35
2024-02-14T23:21:05.775Z,0.59
2024-02-14T23:26:09.286Z,1.17
2024-02-14T23:31:13.475Z,1.40
2024-02-14T23:36:18.699Z,-0.20
2024-02-14T23:41:22.658Z,1.06
2024-02-14T23:46:26.099Z,1.16
2024-02-14T23:51:29.751Z,1.78
2024-02-14T23:56:33.265Z,1.12
